Etusivu
METAR-TAF:

METAR-TAF

Lentoasemat :

Natchez-Adams County Airport (Hardy-Anders Field)

Natchez, Mississippi, Yhdysvallat

Leveyspiiri: 31-37N, Pituuspiiri: 091-18W, korkeus merenpinnasta: 83 m

Tämänhetkinen sää

Tämä raportti tehtiin 39 minuuttia sitten, kello 11.56 UTC
Tuuli 10 kn etelästä puuskistuen 18 kn:hen
Lämpötila 13°C
Kosteus 82%
Ilmanpaine 1013 hPa
Näkyvyys: 16.1 km
Hajonneita pilviä 3600 ft:n korkeudessa
Pilvistä 5000 ft:n korkeudessa

METAR: KHEZ 241156Z AUTO 17010G18KT 10SM BKN036 OVC050 13/10 A2990 RMK AO2 SLP125 60000 T01330100 10144 20133 58011

Aika: 06:35 (12:35 UTC)


TAF: puuttuu

Säähavainnot ja -ennusteet yli 4000 lentoasemalta (METAR- ja TAF-raportit).

Käytössä olevat sääasemat on merkitty karttaan keltaisilla ja punaisilla pisteillä.

Aseta hiiri pisteen päälle nähdäksesi sääaseman nimen.

Klikkaa sitten nähdäksesi säähavainnot ja -ennusteet.

Kartan vaihtaminen: klikkaa mustalla rastilla varustettuja vihreitä pisteitä, niin voit zoomata sisään; viivalla varustettua vihreää pistettä, niin voit zoomata ulos tai vihreitä nuolia, niin pääset viereisille kartoille.


METAR-TAF: